Time;durP1;ratioP1;P1;durP2;ratioP2;P2;SDS_P1;SDS_P2;PMS_P1;PMS_P2;Temp;Humidity;BMP_temperature;BMP_pressure;BME280_temperature;BME280_humidity;BME280_pressure;Samples;Min_cycle;Max_cycle;Signal;HPM_P1;HPM_P2
2024/04/17 00:00:35;;;;;;;6.28;1.00;;;;;;;;;;5386223;26;20004;-74
2024/04/17 00:03:00;;;;;;;2.22;0.80;;;;;;;;;;5410152;26;20003;-73
2024/04/17 00:05:25;;;;;;;1.88;0.77;;;;;;;;;;5397704;26;20004;-73
2024/04/17 00:07:50;;;;;;;3.22;0.88;;;;;;;;;;5390780;26;20094;-74
2024/04/17 00:10:16;;;;;;;2.90;0.60;;;;;;;;;;5389246;26;20077;-73
2024/04/17 00:12:41;;;;;;;3.28;1.20;;;;;;;;;;5390042;26;20004;-73
2024/04/17 00:15:06;;;;;;;1.88;0.80;;;;;;;;;;5385677;26;20375;-73
2024/04/17 00:17:31;;;;;;;1.45;0.63;;;;;;;;;;5390788;26;20016;-73
2024/04/17 00:19:56;;;;;;;2.30;0.77;;;;;;;;;;5399309;26;20367;-73
2024/04/17 00:22:22;;;;;;;1.77;0.73;;;;;;;;;;5393446;26;20004;-73
2024/04/17 00:24:48;;;;;;;1.42;0.55;;;;;;;;;;5393097;26;20035;-73
2024/04/17 00:27:13;;;;;;;3.65;0.93;;;;;;;;;;5380326;26;20011;-73
2024/04/17 00:29:38;;;;;;;1.55;0.63;;;;;;;;;;5400708;26;20059;-73
2024/04/17 00:32:05;;;;;;;2.95;0.80;;;;;;;;;;5401833;26;20130;-73
2024/04/17 00:34:30;;;;;;;2.70;0.90;;;;;;;;;;5393311;26;20004;-73
2024/04/17 00:36:56;;;;;;;2.70;1.05;;;;;;;;;;5387166;26;20014;-73
2024/04/17 00:39:22;;;;;;;3.20;1.08;;;;;;;;;;5392407;26;20085;-73
2024/04/17 00:41:47;;;;;;;1.27;0.70;;;;;;;;;;5390560;26;20015;-73
2024/04/17 00:44:12;;;;;;;2.33;0.82;;;;;;;;;;5394366;26;20089;-73
2024/04/17 00:46:37;;;;;;;3.85;1.20;;;;;;;;;;5389715;26;20150;-73
2024/04/17 00:49:03;;;;;;;3.60;1.10;;;;;;;;;;5396217;26;20529;-73
2024/04/17 00:51:28;;;;;;;2.60;1.13;;;;;;;;;;5390052;26;20010;-73
2024/04/17 00:53:53;;;;;;;2.38;1.00;;;;;;;;;;5383103;26;20015;-73
2024/04/17 00:56:19;;;;;;;3.17;0.88;;;;;;;;;;5386095;26;20014;-73
2024/04/17 00:58:44;;;;;;;2.47;1.00;;;;;;;;;;5400404;26;19999;-73
2024/04/17 01:01:09;;;;;;;5.03;1.02;;;;;;;;;;5397881;26;20004;-73
2024/04/17 01:03:34;;;;;;;3.58;1.00;;;;;;;;;;5397978;26;20000;-73
2024/04/17 01:06:00;;;;;;;3.38;0.95;;;;;;;;;;5395948;26;20027;-73
2024/04/17 01:08:25;;;;;;;2.78;1.23;;;;;;;;;;5401700;26;20018;-73
2024/04/17 01:10:57;;;;;;;4.78;1.30;;;;;;;;;;5391467;26;19996;-73
2024/04/17 01:13:22;;;;;;;3.17;1.27;;;;;;;;;;5398639;26;20465;-73
2024/04/17 01:15:47;;;;;;;4.93;1.77;;;;;;;;;;5404420;26;19996;-73
2024/04/17 01:18:13;;;;;;;3.10;1.35;;;;;;;;;;5390395;26;19996;-73
2024/04/17 01:20:39;;;;;;;4.85;1.52;;;;;;;;;;5387915;26;19997;-73
2024/04/17 01:23:04;;;;;;;5.55;2.00;;;;;;;;;;5385757;26;20486;-73
2024/04/17 01:25:29;;;;;;;3.08;1.42;;;;;;;;;;5391046;26;19992;-73
2024/04/17 01:27:54;;;;;;;4.15;1.40;;;;;;;;;;5393932;26;20006;-73
2024/04/17 01:30:19;;;;;;;4.07;1.30;;;;;;;;;;5411590;26;20011;-73
2024/04/17 01:32:45;;;;;;;5.10;1.48;;;;;;;;;;5398953;26;20015;-73
2024/04/17 01:35:10;;;;;;;3.90;1.30;;;;;;;;;;5387352;26;20008;-73
2024/04/17 01:37:35;;;;;;;3.03;1.52;;;;;;;;;;5379134;26;20019;-73
2024/04/17 01:40:00;;;;;;;3.13;1.38;;;;;;;;;;5403401;26;20000;-73
2024/04/17 01:42:25;;;;;;;3.17;1.42;;;;;;;;;;5393750;26;20386;-73
2024/04/17 01:44:51;;;;;;;3.05;1.30;;;;;;;;;;5388357;26;20537;-73
2024/04/17 01:47:16;;;;;;;2.47;1.13;;;;;;;;;;5382937;26;20187;-74
2024/04/17 01:49:41;;;;;;;3.40;1.35;;;;;;;;;;5392412;26;20024;-73
2024/04/17 01:52:06;;;;;;;3.60;1.10;;;;;;;;;;5417629;26;20000;-73
2024/04/17 01:54:31;;;;;;;4.78;1.60;;;;;;;;;;5396850;26;20015;-73
2024/04/17 01:56:57;;;;;;;3.03;1.52;;;;;;;;;;5406781;26;20060;-73
2024/04/17 01:59:22;;;;;;;4.63;1.60;;;;;;;;;;5408699;26;20348;-73
2024/04/17 02:01:47;;;;;;;3.25;1.67;;;;;;;;;;5397064;26;20010;-73
2024/04/17 02:04:12;;;;;;;4.50;1.42;;;;;;;;;;5393287;26;20102;-73
2024/04/17 02:06:37;;;;;;;4.20;1.60;;;;;;;;;;5392711;26;20008;-73
2024/04/17 02:09:03;;;;;;;3.38;1.45;;;;;;;;;;5408081;26;19999;-73
2024/04/17 02:11:28;;;;;;;3.42;1.50;;;;;;;;;;5397651;26;19999;-73
2024/04/17 02:13:53;;;;;;;3.33;1.48;;;;;;;;;;5395138;26;20007;-73
2024/04/17 02:16:18;;;;;;;3.97;1.70;;;;;;;;;;5388659;26;20348;-73
2024/04/17 02:18:43;;;;;;;3.97;1.70;;;;;;;;;;5395648;26;20452;-73
2024/04/17 02:21:09;;;;;;;5.07;1.98;;;;;;;;;;5405281;26;19999;-73
2024/04/17 02:23:34;;;;;;;7.63;1.67;;;;;;;;;;5400507;26;20007;-73
2024/04/17 02:25:59;;;;;;;3.83;1.95;;;;;;;;;;5396310;26;19996;-73
2024/04/17 02:28:24;;;;;;;4.60;1.60;;;;;;;;;;5396825;26;19999;-73
2024/04/17 02:30:49;;;;;;;4.20;1.60;;;;;;;;;;5391470;26;20028;-73
2024/04/17 02:33:15;;;;;;;3.75;1.77;;;;;;;;;;5410832;26;19999;-73
2024/04/17 02:35:40;;;;;;;3.70;1.80;;;;;;;;;;5397967;26;19996;-73
2024/04/17 02:38:05;;;;;;;4.25;1.63;;;;;;;;;;5399903;26;20071;-73
2024/04/17 02:40:31;;;;;;;5.80;2.17;;;;;;;;;;5399262;26;20020;-73
2024/04/17 02:42:56;;;;;;;4.32;2.10;;;;;;;;;;5395993;26;19999;-73
2024/04/17 02:45:21;;;;;;;3.38;1.70;;;;;;;;;;5386353;26;19996;-73
2024/04/17 02:47:46;;;;;;;4.63;2.13;;;;;;;;;;5394199;26;20359;-73
2024/04/17 02:50:11;;;;;;;4.05;1.90;;;;;;;;;;5406696;26;20498;-73
2024/04/17 02:52:37;;;;;;;7.15;1.80;;;;;;;;;;5398423;26;20007;-73
2024/04/17 02:55:02;;;;;;;3.45;1.40;;;;;;;;;;5394095;26;20010;-73
2024/04/17 02:57:28;;;;;;;3.80;1.98;;;;;;;;;;5391758;26;20344;-73
2024/04/17 02:59:53;;;;;;;4.28;2.08;;;;;;;;;;5407351;26;20008;-73
2024/04/17 03:02:18;;;;;;;5.93;2.00;;;;;;;;;;5404995;26;19995;-73
2024/04/17 03:04:43;;;;;;;4.60;1.65;;;;;;;;;;5397001;26;19996;-73
2024/04/17 03:07:08;;;;;;;5.57;2.30;;;;;;;;;;5410079;26;19996;-72
2024/04/17 03:09:34;;;;;;;6.10;1.90;;;;;;;;;;5400436;26;20352;-73
2024/04/17 03:11:59;;;;;;;3.33;1.50;;;;;;;;;;5404944;26;20324;-73
2024/04/17 03:14:24;;;;;;;5.13;2.20;;;;;;;;;;5383006;26;20484;-73
2024/04/17 03:16:49;;;;;;;4.85;2.10;;;;;;;;;;5396145;26;20455;-73
2024/04/17 03:19:15;;;;;;;4.65;2.05;;;;;;;;;;5400619;26;19995;-73
2024/04/17 03:21:40;;;;;;;5.00;1.70;;;;;;;;;;5392498;26;19996;-73
2024/04/17 03:24:05;;;;;;;5.70;2.15;;;;;;;;;;5387192;26;19996;-73
2024/04/17 03:26:31;;;;;;;5.20;1.92;;;;;;;;;;5383169;26;19997;-73
2024/04/17 03:28:56;;;;;;;4.60;1.77;;;;;;;;;;5395992;26;20092;-73
2024/04/17 03:31:21;;;;;;;5.05;1.92;;;;;;;;;;5393736;26;20000;-73
2024/04/17 03:33:46;;;;;;;5.07;1.73;;;;;;;;;;5402150;26;20004;-73
2024/04/17 03:36:11;;;;;;;5.10;1.58;;;;;;;;;;5388464;26;20006;-73
2024/04/17 03:38:37;;;;;;;6.90;2.10;;;;;;;;;;5392131;26;20040;-73
2024/04/17 03:41:02;;;;;;;5.72;2.22;;;;;;;;;;5396196;26;20011;-73
2024/04/17 03:43:27;;;;;;;5.28;2.03;;;;;;;;;;5401946;26;20019;-73
2024/04/17 03:45:52;;;;;;;4.47;2.03;;;;;;;;;;5395018;26;20008;-73
2024/04/17 03:48:18;;;;;;;3.88;1.60;;;;;;;;;;5392700;26;20452;-75
2024/04/17 03:50:43;;;;;;;6.68;3.13;;;;;;;;;;5409301;26;20011;-75
2024/04/17 03:53:08;;;;;;;6.70;2.10;;;;;;;;;;5396801;26;19999;-75
2024/04/17 03:55:33;;;;;;;4.85;1.88;;;;;;;;;;5382115;26;20000;-75
2024/04/17 03:57:58;;;;;;;5.22;1.50;;;;;;;;;;5393529;26;20088;-75
2024/04/17 04:00:24;;;;;;;3.30;2.03;;;;;;;;;;5408808;26;20007;-75
2024/04/17 04:02:49;;;;;;;4.13;1.80;;;;;;;;;;5401458;26;20015;-75
2024/04/17 04:05:14;;;;;;;4.95;1.83;;;;;;;;;;5385383;26;20070;-75
2024/04/17 04:07:39;;;;;;;4.85;2.30;;;;;;;;;;5384966;26;20023;-75
2024/04/17 04:10:05;;;;;;;4.47;2.00;;;;;;;;;;5400995;26;20003;-75
2024/04/17 04:12:30;;;;;;;4.75;1.90;;;;;;;;;;5395202;26;20001;-75
2024/04/17 04:14:56;;;;;;;5.57;2.15;;;;;;;;;;5394126;26;20000;-75
2024/04/17 04:17:21;;;;;;;4.75;2.25;;;;;;;;;;5387199;26;20061;-75
2024/04/17 04:19:46;;;;;;;9.63;2.63;;;;;;;;;;5393369;26;20473;-75
2024/04/17 04:22:11;;;;;;;3.42;1.77;;;;;;;;;;5391392;26;20014;-75
2024/04/17 04:24:36;;;;;;;4.72;1.77;;;;;;;;;;5389855;26;20010;-75
2024/04/17 04:27:02;;;;;;;3.53;1.83;;;;;;;;;;5411926;26;20464;-75
2024/04/17 04:29:27;;;;;;;4.93;2.42;;;;;;;;;;5401579;26;19997;-75
2024/04/17 04:31:52;;;;;;;4.90;2.10;;;;;;;;;;5394651;26;20007;-75
2024/04/17 04:34:17;;;;;;;2.88;1.60;;;;;;;;;;5405270;26;19999;-75
2024/04/17 04:36:43;;;;;;;6.45;1.77;;;;;;;;;;5405280;26;20340;-75
2024/04/17 04:39:08;;;;;;;4.22;1.77;;;;;;;;;;5407169;26;20000;-75
2024/04/17 04:41:33;;;;;;;4.35;2.08;;;;;;;;;;5412789;26;20000;-75
2024/04/17 04:43:58;;;;;;;6.45;2.42;;;;;;;;;;5412862;26;19996;-75
2024/04/17 04:46:23;;;;;;;10.05;5.75;;;;;;;;;;5409147;26;19992;-75
2024/04/17 04:48:49;;;;;;;6.82;3.05;;;;;;;;;;5402465;26;20007;-75
2024/04/17 04:51:14;;;;;;;7.35;3.40;;;;;;;;;;5393099;26;20015;-75
2024/04/17 04:53:39;;;;;;;5.78;3.05;;;;;;;;;;5394301;26;20000;-75
2024/04/17 04:56:05;;;;;;;5.22;2.38;;;;;;;;;;5394092;26;20000;-75
2024/04/17 04:58:30;;;;;;;4.93;2.53;;;;;;;;;;5410566;26;20464;-75
2024/04/17 05:00:56;;;;;;;6.00;3.13;;;;;;;;;;5404778;26;20403;-75
2024/04/17 05:03:21;;;;;;;5.65;2.63;;;;;;;;;;5399759;26;20422;-75
2024/04/17 05:05:46;;;;;;;8.10;4.30;;;;;;;;;;5378990;26;20073;-75
2024/04/17 05:08:12;;;;;;;5.47;3.08;;;;;;;;;;5394435;26;20009;-75
2024/04/17 05:10:37;;;;;;;5.85;2.70;;;;;;;;;;5393004;26;19992;-74
2024/04/17 05:13:02;;;;;;;5.75;2.33;;;;;;;;;;5397031;26;20051;-75
2024/04/17 05:15:28;;;;;;;4.15;2.38;;;;;;;;;;5394374;26;20498;-75
2024/04/17 05:17:53;;;;;;;6.20;3.35;;;;;;;;;;5382416;26;20004;-75
2024/04/17 05:20:18;;;;;;;4.40;2.38;;;;;;;;;;5397919;26;19995;-75
2024/04/17 05:22:44;;;;;;;5.25;2.47;;;;;;;;;;5394204;26;20005;-75
2024/04/17 05:25:09;;;;;;;4.35;2.63;;;;;;;;;;5408246;26;20022;-75
2024/04/17 05:27:34;;;;;;;7.03;2.75;;;;;;;;;;5403333;26;20003;-75
2024/04/17 05:29:59;;;;;;;4.00;2.28;;;;;;;;;;5389962;26;20414;-76
2024/04/17 05:32:24;;;;;;;6.35;2.63;;;;;;;;;;5391698;26;20084;-75
2024/04/17 05:34:50;;;;;;;5.57;2.65;;;;;;;;;;5390714;26;20016;-75
2024/04/17 05:37:15;;;;;;;7.60;2.70;;;;;;;;;;5392860;26;20080;-75
2024/04/17 05:39:40;;;;;;;6.43;2.65;;;;;;;;;;5392974;26;20005;-75
2024/04/17 05:42:05;;;;;;;6.43;3.03;;;;;;;;;;5402068;26;20003;-75
2024/04/17 05:44:31;;;;;;;5.00;3.00;;;;;;;;;;5381496;26;20012;-75
2024/04/17 05:46:56;;;;;;;6.25;3.70;;;;;;;;;;5396358;26;20008;-75
2024/04/17 05:49:22;;;;;;;6.07;4.40;;;;;;;;;;5405449;26;20018;-75
2024/04/17 05:51:47;;;;;;;6.43;4.45;;;;;;;;;;5398356;26;20004;-75
2024/04/17 05:54:12;;;;;;;6.70;4.22;;;;;;;;;;5395122;26;20469;-75
2024/04/17 05:56:38;;;;;;;5.90;3.38;;;;;;;;;;5383589;26;20011;-75
2024/04/17 05:59:03;;;;;;;8.32;3.25;;;;;;;;;;5394491;26;20018;-75
2024/04/17 06:01:28;;;;;;;6.63;2.63;;;;;;;;;;5385885;26;20014;-75
2024/04/17 06:03:53;;;;;;;8.35;2.42;;;;;;;;;;5400766;26;20004;-73
2024/04/17 06:06:19;;;;;;;3.95;1.65;;;;;;;;;;5388489;26;19996;-73
2024/04/17 06:08:44;;;;;;;2.85;1.17;;;;;;;;;;5393164;26;20369;-73
2024/04/17 06:11:09;;;;;;;3.50;1.23;;;;;;;;;;5390105;26;20357;-73
2024/04/17 06:13:34;;;;;;;4.15;1.52;;;;;;;;;;5385514;26;20026;-73
2024/04/17 06:15:59;;;;;;;3.20;1.23;;;;;;;;;;5381390;26;19995;-73
2024/04/17 06:18:25;;;;;;;3.40;1.15;;;;;;;;;;5389888;26;20004;-73
2024/04/17 06:20:50;;;;;;;2.42;1.00;;;;;;;;;;5391685;26;20020;-73
2024/04/17 06:23:15;;;;;;;3.80;1.55;;;;;;;;;;5390890;26;20016;-73
2024/04/17 06:25:41;;;;;;;3.10;1.25;;;;;;;;;;5380024;26;20004;-73
2024/04/17 06:28:06;;;;;;;3.97;1.13;;;;;;;;;;5378973;26;20008;-73
2024/04/17 06:30:31;;;;;;;4.00;1.10;;;;;;;;;;5393276;26;20004;-73
2024/04/17 06:32:57;;;;;;;5.03;1.63;;;;;;;;;;5399847;26;20003;-73
2024/04/17 06:35:22;;;;;;;3.75;1.38;;;;;;;;;;5385523;26;20005;-73
2024/04/17 06:37:47;;;;;;;3.10;0.90;;;;;;;;;;5386562;26;20415;-73
2024/04/17 06:40:12;;;;;;;3.95;1.45;;;;;;;;;;5394057;26;20023;-74
2024/04/17 06:42:37;;;;;;;3.00;0.93;;;;;;;;;;5394042;26;20003;-73
2024/04/17 06:45:04;;;;;;;9.23;1.48;;;;;;;;;;5391800;26;20004;-73
2024/04/17 06:47:29;;;;;;;2.28;1.20;;;;;;;;;;5390539;26;20008;-73
2024/04/17 06:49:55;;;;;;;4.13;1.00;;;;;;;;;;5395557;26;19992;-73
2024/04/17 06:52:20;;;;;;;2.50;1.00;;;;;;;;;;5392355;26;19999;-73
2024/04/17 06:54:46;;;;;;;4.10;1.60;;;;;;;;;;5398840;26;20033;-73
2024/04/17 06:57:11;;;;;;;4.40;1.30;;;;;;;;;;5386838;26;20000;-73
2024/04/17 06:59:36;;;;;;;4.10;1.25;;;;;;;;;;5396128;26;20464;-73
2024/04/17 07:02:01;;;;;;;2.65;1.02;;;;;;;;;;5395570;26;19996;-73
2024/04/17 07:04:27;;;;;;;2.83;1.05;;;;;;;;;;5396738;26;20099;-73
2024/04/17 07:06:52;;;;;;;3.50;1.15;;;;;;;;;;5401210;26;20411;-73
2024/04/17 07:09:17;;;;;;;3.63;1.75;;;;;;;;;;5403990;26;20085;-73
2024/04/17 07:11:42;;;;;;;2.65;1.00;;;;;;;;;;5400495;26;19999;-73
2024/04/17 07:14:07;;;;;;;2.38;0.88;;;;;;;;;;5404248;26;20478;-73
2024/04/17 07:16:33;;;;;;;4.85;1.08;;;;;;;;;;5389476;26;20337;-73
2024/04/17 07:18:59;;;;;;;6.78;1.40;;;;;;;;;;5399939;26;20471;-73
2024/04/17 07:21:24;;;;;;;3.03;1.00;;;;;;;;;;5399717;26;20003;-73
2024/04/17 07:23:50;;;;;;;3.75;1.10;;;;;;;;;;5393500;26;20410;-74
2024/04/17 07:26:15;;;;;;;3.38;1.02;;;;;;;;;;5393625;26;20003;-73
2024/04/17 07:28:40;;;;;;;2.90;0.90;;;;;;;;;;5409622;26;20003;-73
2024/04/17 07:31:05;;;;;;;2.85;0.80;;;;;;;;;;5393601;26;20013;-73
2024/04/17 07:33:31;;;;;;;3.55;0.90;;;;;;;;;;5406553;26;20004;-73
2024/04/17 07:35:59;;;;;;;2.70;1.08;;;;;;;;;;5391850;26;20008;-73
2024/04/17 07:38:25;;;;;;;3.47;0.80;;;;;;;;;;5388755;26;20007;-73
2024/04/17 07:41:02;;;;;;;2.90;0.90;;;;;;;;;;5413619;26;19996;-73
2024/04/17 07:43:30;;;;;;;2.22;1.02;;;;;;;;;;5404839;26;20004;-73
2024/04/17 07:45:56;;;;;;;3.03;0.90;;;;;;;;;;5390804;26;20469;-73
2024/04/17 07:48:21;;;;;;;3.28;0.98;;;;;;;;;;5398304;26;20018;-73
2024/04/17 07:50:47;;;;;;;2.88;0.80;;;;;;;;;;5392089;26;20036;-73
2024/04/17 07:53:12;;;;;;;3.30;1.23;;;;;;;;;;5398784;26;20015;-73
2024/04/17 07:55:38;;;;;;;3.88;0.93;;;;;;;;;;5398534;26;20356;-73
2024/04/17 07:58:03;;;;;;;3.10;0.60;;;;;;;;;;5393947;26;19999;-73
2024/04/17 08:00:29;;;;;;;2.95;0.93;;;;;;;;;;5395283;26;20003;-73
2024/04/17 08:02:54;;;;;;;4.40;0.80;;;;;;;;;;5407086;26;19995;-74
2024/04/17 08:05:19;;;;;;;2.83;0.63;;;;;;;;;;5406147;26;20009;-73
2024/04/17 08:07:44;;;;;;;2.80;0.90;;;;;;;;;;5392965;26;20004;-73
2024/04/17 08:10:09;;;;;;;2.60;0.90;;;;;;;;;;5412842;26;20072;-73
2024/04/17 08:12:36;;;;;;;1.98;0.70;;;;;;;;;;5401079;26;20337;-73
2024/04/17 08:15:01;;;;;;;1.80;0.70;;;;;;;;;;5401364;26;20010;-73
2024/04/17 08:17:27;;;;;;;2.38;0.77;;;;;;;;;;5405510;26;19999;-73
2024/04/17 08:19:52;;;;;;;3.53;0.80;;;;;;;;;;5396001;26;20011;-74
2024/04/17 08:22:17;;;;;;;3.08;0.70;;;;;;;;;;5394700;26;19999;-73
2024/04/17 08:24:43;;;;;;;2.70;0.68;;;;;;;;;;5402416;26;19995;-73
2024/04/17 08:27:08;;;;;;;2.65;0.77;;;;;;;;;;5408482;26;20003;-73
2024/04/17 08:29:33;;;;;;;2.08;0.80;;;;;;;;;;5400105;26;20003;-73
2024/04/17 08:31:58;;;;;;;2.78;0.60;;;;;;;;;;5399581;26;20057;-73
2024/04/17 08:34:23;;;;;;;2.45;0.50;;;;;;;;;;5388523;26;20009;-74
2024/04/17 08:36:49;;;;;;;2.20;0.70;;;;;;;;;;5399206;26;20317;-74
2024/04/17 08:39:14;;;;;;;2.13;0.63;;;;;;;;;;5395305;26;20014;-73
2024/04/17 08:41:44;;;;;;;1.63;0.50;;;;;;;;;;5389354;26;20036;-73
2024/04/17 08:44:14;;;;;;;3.22;0.80;;;;;;;;;;5393190;26;20011;-73
2024/04/17 08:46:39;;;;;;;5.70;1.15;;;;;;;;;;5380831;26;20508;-73
2024/04/17 08:49:05;;;;;;;3.20;0.88;;;;;;;;;;5385106;26;20068;-73
2024/04/17 08:51:30;;;;;;;2.35;0.60;;;;;;;;;;5391685;26;20010;-73
2024/04/17 08:53:57;;;;;;;2.75;0.70;;;;;;;;;;5397969;26;20005;-73
2024/04/17 08:56:24;;;;;;;3.58;0.60;;;;;;;;;;5385397;26;19996;-73
2024/04/17 08:58:50;;;;;;;2.70;0.70;;;;;;;;;;5384717;26;20090;-74
2024/04/17 09:01:18;;;;;;;2.05;0.70;;;;;;;;;;5389498;26;20008;-74
2024/04/17 09:03:43;;;;;;;2.13;0.70;;;;;;;;;;5392764;26;20011;-73
2024/04/17 09:06:09;;;;;;;3.42;1.17;;;;;;;;;;5395175;26;20331;-74
2024/04/17 09:08:35;;;;;;;1.98;0.73;;;;;;;;;;5387138;26;20019;-74
2024/04/17 09:11:02;;;;;;;2.65;0.75;;;;;;;;;;5394636;26;20004;-74
2024/04/17 09:13:27;;;;;;;2.53;0.90;;;;;;;;;;5386025;26;20018;-74
2024/04/17 09:15:52;;;;;;;4.15;1.20;;;;;;;;;;5390444;26;20004;-74
2024/04/17 09:18:23;;;;;;;3.08;0.55;;;;;;;;;;5391314;26;20007;-74
2024/04/17 09:20:48;;;;;;;2.80;0.70;;;;;;;;;;5397041;26;20555;-74
2024/04/17 09:23:14;;;;;;;2.40;0.50;;;;;;;;;;5388889;26;19999;-74
2024/04/17 09:25:39;;;;;;;1.13;0.50;;;;;;;;;;5387394;26;20000;-74
2024/04/17 09:28:05;;;;;;;3.47;1.00;;;;;;;;;;5398721;26;20007;-74
2024/04/17 09:30:30;;;;;;;3.45;0.88;;;;;;;;;;5402418;26;20459;-74
2024/04/17 09:32:55;;;;;;;2.13;0.63;;;;;;;;;;5405614;26;20012;-74
2024/04/17 09:35:21;;;;;;;3.80;0.65;;;;;;;;;;5397187;26;20004;-74
2024/04/17 09:37:46;;;;;;;2.42;0.70;;;;;;;;;;5385767;26;20081;-74
2024/04/17 09:40:12;;;;;;;2.20;0.80;;;;;;;;;;5389730;26;20004;-74
2024/04/17 09:42:41;;;;;;;5.50;0.80;;;;;;;;;;5380023;26;20004;-74
2024/04/17 09:45:07;;;;;;;2.25;0.70;;;;;;;;;;5393934;26;20101;-74
2024/04/17 09:47:32;;;;;;;2.63;1.13;;;;;;;;;;5403681;26;20004;-74
2024/04/17 09:50:00;;;;;;;2.38;0.88;;;;;;;;;;5397273;26;20015;-74
2024/04/17 09:52:26;;;;;;;2.50;0.95;;;;;;;;;;5387583;26;20000;-74
2024/04/17 09:54:52;;;;;;;4.82;1.42;;;;;;;;;;5395408;26;20004;-74
2024/04/17 09:57:17;;;;;;;2.90;1.08;;;;;;;;;;5394894;26;20011;-74
2024/04/17 09:59:43;;;;;;;6.72;2.20;;;;;;;;;;5405199;26;19996;-74
2024/04/17 10:02:13;;;;;;;4.32;1.25;;;;;;;;;;5408620;26;19999;-75
2024/04/17 10:04:39;;;;;;;5.43;1.65;;;;;;;;;;5393121;26;20487;-74
2024/04/17 10:07:07;;;;;;;2.08;0.90;;;;;;;;;;5392646;26;20003;-75
2024/04/17 10:09:33;;;;;;;2.88;1.00;;;;;;;;;;5390193;26;20418;-74
2024/04/17 10:11:59;;;;;;;3.72;1.42;;;;;;;;;;5399610;26;20011;-74
2024/04/17 10:14:25;;;;;;;3.17;1.00;;;;;;;;;;5403320;26;20003;-74
2024/04/17 10:16:51;;;;;;;3.60;1.05;;;;;;;;;;5406736;26;19999;-74
2024/04/17 10:19:17;;;;;;;5.13;1.50;;;;;;;;;;5394837;26;20000;-74
2024/04/17 10:21:42;;;;;;;4.72;1.42;;;;;;;;;;5394834;26;20015;-74
2024/04/17 10:24:11;;;;;;;3.15;1.35;;;;;;;;;;5396596;26;20003;-74
2024/04/17 10:26:43;;;;;;;3.22;1.65;;;;;;;;;;5399472;26;20349;-74
2024/04/17 10:29:21;;;;;;;2.60;1.15;;;;;;;;;;5410611;26;20054;-74
2024/04/17 10:31:56;;;;;;;3.67;1.10;;;;;;;;;;5414793;26;20007;-74
2024/04/17 10:34:22;;;;;;;3.60;1.17;;;;;;;;;;5410922;26;19997;-74
2024/04/17 10:37:16;;;;;;;3.22;1.20;;;;;;;;;;5408584;26;20370;-74
2024/04/17 10:39:42;;;;;;;2.42;1.17;;;;;;;;;;5406608;26;19999;-74
2024/04/17 10:42:08;;;;;;;3.67;1.10;;;;;;;;;;5415095;26;20090;-74
2024/04/17 10:44:43;;;;;;;3.15;1.00;;;;;;;;;;5389810;26;20007;-74
2024/04/17 10:47:17;;;;;;;2.50;0.98;;;;;;;;;;5398141;26;20000;-75
2024/04/17 10:49:42;;;;;;;2.95;1.10;;;;;;;;;;5397937;26;20031;-74
2024/04/17 10:52:08;;;;;;;3.97;1.60;;;;;;;;;;5386572;26;20003;-74
2024/04/17 10:54:34;;;;;;;3.42;1.30;;;;;;;;;;5400550;26;20453;-74
2024/04/17 10:57:00;;;;;;;2.25;1.30;;;;;;;;;;5407280;26;20010;-74
2024/04/17 10:59:26;;;;;;;2.90;1.02;;;;;;;;;;5396910;26;20000;-74
2024/04/17 11:01:52;;;;;;;3.63;1.05;;;;;;;;;;5389653;26;20381;-74
2024/04/17 11:04:17;;;;;;;5.60;1.65;;;;;;;;;;5393848;26;19992;-75
2024/04/17 11:06:43;;;;;;;2.15;0.80;;;;;;;;;;5385291;26;20007;-75
2024/04/17 11:09:09;;;;;;;2.65;0.93;;;;;;;;;;5392613;26;19992;-74
2024/04/17 11:11:34;;;;;;;2.22;0.82;;;;;;;;;;5398242;26;20040;-74
2024/04/17 11:13:59;;;;;;;4.35;1.00;;;;;;;;;;5391614;26;20399;-75
2024/04/17 11:16:24;;;;;;;1.92;0.85;;;;;;;;;;5386419;26;20004;-74
2024/04/17 11:18:49;;;;;;;4.60;0.95;;;;;;;;;;5396271;26;20012;-75
2024/04/17 11:21:15;;;;;;;3.13;0.82;;;;;;;;;;5392408;26;20000;-74
2024/04/17 11:23:41;;;;;;;3.42;1.10;;;;;;;;;;5391941;26;20004;-74
2024/04/17 11:26:06;;;;;;;2.35;0.82;;;;;;;;;;5395067;26;20487;-75
2024/04/17 11:28:32;;;;;;;2.38;1.27;;;;;;;;;;5387798;26;19996;-74
2024/04/17 11:30:57;;;;;;;4.03;0.95;;;;;;;;;;5398968;26;20007;-75
2024/04/17 11:33:22;;;;;;;4.38;1.00;;;;;;;;;;5391721;26;19996;-75
2024/04/17 11:36:01;;;;;;;2.40;0.93;;;;;;;;;;5390919;26;20004;-75
2024/04/17 11:38:28;;;;;;;1.73;0.60;;;;;;;;;;5394502;26;20134;-75
2024/04/17 11:40:53;;;;;;;3.15;0.80;;;;;;;;;;5397979;26;20004;-75
2024/04/17 11:43:18;;;;;;;1.58;0.50;;;;;;;;;;5388441;26;20019;-75
2024/04/17 11:45:44;;;;;;;3.15;0.77;;;;;;;;;;5384056;26;20012;-75
2024/04/17 11:48:09;;;;;;;1.17;0.60;;;;;;;;;;5378033;26;20032;-75
2024/04/17 11:50:34;;;;;;;2.15;0.60;;;;;;;;;;5396663;26;20050;-75
2024/04/17 11:52:59;;;;;;;2.83;0.77;;;;;;;;;;5395394;26;20000;-75
2024/04/17 11:55:24;;;;;;;1.92;0.70;;;;;;;;;;5389455;26;20414;-75
2024/04/17 11:57:50;;;;;;;4.78;0.95;;;;;;;;;;5409003;26;20520;-74
2024/04/17 12:00:15;;;;;;;2.60;1.30;;;;;;;;;;5395207;26;20466;-75
2024/04/17 12:02:40;;;;;;;5.20;1.48;;;;;;;;;;5388692;26;20006;-75
2024/04/17 12:05:07;;;;;;;1.48;0.70;;;;;;;;;;5398460;26;20007;-75
2024/04/17 12:07:32;;;;;;;1.83;1.00;;;;;;;;;;5398189;26;20097;-75
2024/04/17 12:09:57;;;;;;;2.30;0.80;;;;;;;;;;5400513;26;20004;-75
2024/04/17 12:12:22;;;;;;;3.25;0.90;;;;;;;;;;5389329;26;20014;-75
2024/04/17 12:14:49;;;;;;;2.13;0.60;;;;;;;;;;5396542;26;20058;-75
2024/04/17 12:17:15;;;;;;;2.67;0.60;;;;;;;;;;5386668;26;20014;-75
2024/04/17 12:19:40;;;;;;;1.55;0.70;;;;;;;;;;5398759;26;20348;-75
2024/04/17 12:22:05;;;;;;;2.10;0.60;;;;;;;;;;5400826;26;20341;-75
2024/04/17 12:27:14;;;;;;;2.63;0.70;;;;;;;;;;5390649;26;20036;-75
2024/04/17 12:29:41;;;;;;;2.47;0.93;;;;;;;;;;5389561;26;20014;-75
2024/04/17 12:32:06;;;;;;;2.35;0.70;;;;;;;;;;5391616;26;20000;-76
2024/04/17 12:34:32;;;;;;;2.22;0.60;;;;;;;;;;5398490;26;20037;-76
2024/04/17 12:36:57;;;;;;;2.10;0.70;;;;;;;;;;5399187;26;20000;-75
2024/04/17 12:39:22;;;;;;;1.90;0.80;;;;;;;;;;5390111;26;20078;-75
2024/04/17 12:41:48;;;;;;;2.85;0.77;;;;;;;;;;5389032;26;20001;-75
2024/04/17 12:44:13;;;;;;;2.72;0.90;;;;;;;;;;5381022;26;20355;-75
2024/04/17 12:46:38;;;;;;;5.32;1.38;;;;;;;;;;5392091;26;20472;-75
2024/04/17 12:49:03;;;;;;;3.35;0.80;;;;;;;;;;5402360;26;20011;-75
2024/04/17 12:51:29;;;;;;;2.15;0.70;;;;;;;;;;5397032;26;20000;-75
2024/04/17 12:53:54;;;;;;;6.00;1.35;;;;;;;;;;5397826;26;20012;-75
2024/04/17 12:56:19;;;;;;;0.98;0.45;;;;;;;;;;5382112;26;20031;-75
2024/04/17 12:58:44;;;;;;;3.33;0.75;;;;;;;;;;5385886;26;20000;-75
2024/04/17 13:01:10;;;;;;;3.47;1.23;;;;;;;;;;5404506;26;20003;-75
2024/04/17 13:03:35;;;;;;;3.25;0.93;;;;;;;;;;5399439;26;20736;-75
2024/04/17 13:06:04;;;;;;;2.55;0.70;;;;;;;;;;5405809;26;19992;-75
2024/04/17 13:08:29;;;;;;;2.10;0.82;;;;;;;;;;5384780;26;20000;-75
2024/04/17 13:11:01;;;;;;;1.85;0.60;;;;;;;;;;5393060;26;20016;-75
2024/04/17 13:13:26;;;;;;;4.20;0.82;;;;;;;;;;5385445;26;19999;-75
2024/04/17 13:15:59;;;;;;;2.05;0.75;;;;;;;;;;5390582;26;20081;-75
2024/04/17 13:18:24;;;;;;;1.45;0.52;;;;;;;;;;5398191;26;20011;-75
2024/04/17 13:20:56;;;;;;;6.15;1.08;;;;;;;;;;5405277;26;20445;-75
2024/04/17 13:23:22;;;;;;;2.35;0.63;;;;;;;;;;5382475;26;20000;-75
2024/04/17 13:25:57;;;;;;;2.63;0.82;;;;;;;;;;5390824;26;20012;-75
2024/04/17 13:28:22;;;;;;;2.97;0.70;;;;;;;;;;5395340;26;20543;-75
2024/04/17 13:30:55;;;;;;;1.58;0.63;;;;;;;;;;5404233;26;20010;-75
2024/04/17 13:33:20;;;;;;;2.85;0.98;;;;;;;;;;5402448;26;20000;-75
2024/04/17 13:35:52;;;;;;;4.10;0.93;;;;;;;;;;5404829;26;20076;-75
2024/04/17 13:38:17;;;;;;;3.22;1.05;;;;;;;;;;5395209;26;20866;-75
2024/04/17 13:40:42;;;;;;;3.20;1.20;;;;;;;;;;5387780;26;20008;-75
2024/04/17 13:43:07;;;;;;;2.80;0.90;;;;;;;;;;5395427;26;20092;-76
2024/04/17 13:45:32;;;;;;;4.43;1.83;;;;;;;;;;5388234;26;20018;-75
2024/04/17 13:47:58;;;;;;;4.63;0.90;;;;;;;;;;5394029;26;20338;-75
2024/04/17 13:50:23;;;;;;;4.32;0.90;;;;;;;;;;5397204;26;19999;-76
2024/04/17 13:52:48;;;;;;;1.45;0.60;;;;;;;;;;5400695;26;20004;-75
2024/04/17 13:55:14;;;;;;;2.97;0.80;;;;;;;;;;5384086;26;20015;-75
2024/04/17 13:57:39;;;;;;;2.35;1.10;;;;;;;;;;5396499;26;20000;-75
2024/04/17 14:00:05;;;;;;;1.77;1.00;;;;;;;;;;5399102;26;20471;-76
2024/04/17 14:02:36;;;;;;;3.15;1.48;;;;;;;;;;5391219;26;20015;-76
2024/04/17 14:05:02;;;;;;;2.42;0.80;;;;;;;;;;5398810;26;20352;-76
2024/04/17 14:07:27;;;;;;;3.95;1.35;;;;;;;;;;5399767;26;20004;-76
2024/04/17 14:09:52;;;;;;;1.88;0.70;;;;;;;;;;5406668;26;20424;-76
2024/04/17 14:12:17;;;;;;;4.45;1.90;;;;;;;;;;5390869;26;19999;-76
2024/04/17 14:14:42;;;;;;;2.15;0.80;;;;;;;;;;5385194;26;20000;-75
2024/04/17 14:17:08;;;;;;;3.20;1.20;;;;;;;;;;5398846;26;20069;-75
2024/04/17 14:19:33;;;;;;;2.47;0.60;;;;;;;;;;5396225;26;19992;-75
2024/04/17 14:21:58;;;;;;;2.72;0.73;;;;;;;;;;5393183;26;20318;-76
2024/04/17 14:24:23;;;;;;;2.05;0.60;;;;;;;;;;5394354;26;20000;-75
2024/04/17 14:26:49;;;;;;;1.42;0.50;;;;;;;;;;5387717;26;20000;-76
2024/04/17 14:29:14;;;;;;;2.83;0.85;;;;;;;;;;5395909;26;20035;-76
2024/04/17 14:31:39;;;;;;;2.40;1.13;;;;;;;;;;5389546;26;20007;-76
2024/04/17 14:34:04;;;;;;;2.03;1.05;;;;;;;;;;5393409;26;20785;-76
2024/04/17 14:36:29;;;;;;;2.08;0.70;;;;;;;;;;5409327;26;20089;-75